Vendee 1 — FGH2726 — position and weather

sailwx.info

Track history (hours):
 
Tides and Currents Weather Stations Pressure Air Temp Water Temp Dewpoint Dewpoint Depression Visibility Wind Speed Wind Dir Waves Ship Positions

Vendee 1

Last reported at 2017-Sep-19 20:12 UTC. Time now 2017-Sep-20 18:25 UTC.
Position N 51°19' W 009°40'.

Length 10 m.

Type: Sailing vessel. MMSI: 227078960.

Date/timePositionNaut miles runAvg speedWind from/ knotsBaromVisibWave heightAir tempDewpointWater temp
2017-Sep-19 20:12N 51°19' W 009°40'1 6.2
2017-Sep-19 20:00N 51°21' W 009°41'3 5.6
2017-Sep-19 19:31N 51°23' W 009°38'4 7.5
2017-Sep-19 19:00N 51°23' W 009°32'4 8.4
2017-Sep-19 18:30N 51°22' W 009°25'510.2
2017-Sep-19 18:00N 51°19' W 009°19'227 5.3
2017-Sep-17 22:59N 48°40' W 005°07'4 7.7
2017-Sep-17 22:30N 48°37' W 005°04'4 7.3
2017-Sep-17 22:00N 48°34' W 005°01'3 6.7
2017-Sep-17 21:30N 48°31' W 004°59'3 6.8
2017-Sep-17 20:59N 48°28' W 004°55'3 6.9
2017-Sep-17 20:29N 48°25' W 004°52'3 6.2
2017-Sep-17 20:00N 48°23' W 004°49'4 4.1
2017-Sep-17 19:01N 48°20' W 004°46'0 5.4
2017-Sep-17 19:00N 48°19' W 004°46'2 4.7
2017-Sep-17 18:30N 48°18' W 004°44'3 6.7
2017-Sep-17 18:00N 48°17' W 004°39'2 4.8
2017-Sep-17 17:30N 48°15' W 004°38'3 5.2
2017-Sep-17 17:00N 48°14' W 004°35'3 5.7
2017-Sep-17 16:30N 48°11' W 004°34'2 4.7
2017-Sep-17 16:00N 48°10' W 004°31'2 4.7
2017-Sep-17 15:30N 48°09' W 004°28'2 4.9
2017-Sep-17 15:00N 48°08' W 004°25'3 5.1
2017-Sep-17 14:30N 48°07' W 004°21'2 3.0
2017-Sep-17 13:59N 48°06' W 004°19'0 0.8
2017-Sep-17 13:30N 48°07' W 004°20'1 0.0
2017-Sep-16 14:04N 48°06' W 004°20'0 5.2
2017-Sep-16 14:00N 48°06' W 004°20'1 2.0
2017-Sep-16 13:30N 48°07' W 004°20'1 2.0
2017-Sep-16 12:59N 48°06' W 004°19'2 3.1
2017-Sep-16 12:30N 48°07' W 004°21'1 2.2
2017-Sep-16 11:58N 48°06' W 004°20'0 0.0
2017-Sep-16 10:58N 48°06' W 004°20'0 0.0
2017-Sep-16 09:58N 48°06' W 004°20'0 0.0
2017-Sep-16 08:58N 48°06' W 004°20'0 0.0
2017-Sep-16 07:43N 48°06' W 004°20'0 0.0
2017-Sep-16 06:58N 48°06' W 004°20'0 0.0
2017-Sep-16 05:43N 48°06' W 004°20'0 0.0
2017-Sep-16 03:58N 48°06' W 004°20'0 0.0
2017-Sep-16 02:43N 48°06' W 004°20'0 0.0
2017-Sep-16 01:43N 48°06' W 004°20'0 0.0
2017-Sep-16 00:58N 48°06' W 004°20'0 0.0
2017-Sep-15 23:01N 48°06' W 004°20'0 0.0
2017-Sep-15 22:58N 48°06' W 004°20'0 0.0
2017-Sep-15 21:58N 48°06' W 004°20'0 0.0
2017-Sep-15 20:58N 48°06' W 004°20'0 0.0
2017-Sep-15 19:58N 48°06' W 004°20'0 0.0
2017-Sep-15 18:58N 48°06' W 004°20'0 0.0
2017-Sep-15 17:58N 48°06' W 004°20'0 0.0
2017-Sep-15 16:43N 48°06' W 004°20'0 0.0
2017-Sep-15 15:43N 48°06' W 004°20'0 0.0
2017-Sep-15 13:58N 48°06' W 004°20'2 4.8
2017-Sep-15 13:30N 48°07' W 004°23'4 8.6
2017-Sep-15 13:00N 48°06' W 004°30'6 9.9
2017-Sep-15 12:27N 48°05' W 004°38'3 7.2
2017-Sep-15 11:58N 48°04' W 004°43'62 5.2
2017-Sep-15 00:10N 47°26' W 003°31'2 6.0
2017-Sep-14 23:54N 47°26' W 003°28'2 5.7
2017-Sep-14 23:29N 47°25' W 003°25'4 6.4
2017-Sep-14 22:56N 47°24' W 003°20'2 5.6
2017-Sep-14 22:30N 47°24' W 003°16'  
Track history (hours):
 
Tides and Currents Weather Stations Pressure Air Temp Water Temp Dewpoint Dewpoint Depression Visibility Wind Speed Wind Dir Waves Ship Positions

Vendee 1

Last reported at 2017-Sep-19 20:12 UTC. Time now 2017-Sep-20 18:25 UTC.
Position N 51°19' W 009°40'.

Length 10 m.

Type: Sailing vessel. MMSI: 227078960.

Date/timePositionNaut miles runAvg speedWind from/ knotsBaromVisibWave heightAir tempDewpointWater temp
2017-Sep-19 20:12N 51°19' W 009°40'1 6.2
2017-Sep-19 20:00N 51°21' W 009°41'3 5.6
2017-Sep-19 19:31N 51°23' W 009°38'4 7.5
2017-Sep-19 19:00N 51°23' W 009°32'4 8.4
2017-Sep-19 18:30N 51°22' W 009°25'510.2
2017-Sep-19 18:00N 51°19' W 009°19'227 5.3
2017-Sep-17 22:59N 48°40' W 005°07'4 7.7
2017-Sep-17 22:30N 48°37' W 005°04'4 7.3
2017-Sep-17 22:00N 48°34' W 005°01'3 6.7
2017-Sep-17 21:30N 48°31' W 004°59'3 6.8
2017-Sep-17 20:59N 48°28' W 004°55'3 6.9
2017-Sep-17 20:29N 48°25' W 004°52'3 6.2
2017-Sep-17 20:00N 48°23' W 004°49'4 4.1
2017-Sep-17 19:01N 48°20' W 004°46'0 5.4
2017-Sep-17 19:00N 48°19' W 004°46'2 4.7
2017-Sep-17 18:30N 48°18' W 004°44'3 6.7
2017-Sep-17 18:00N 48°17' W 004°39'2 4.8
2017-Sep-17 17:30N 48°15' W 004°38'3 5.2
2017-Sep-17 17:00N 48°14' W 004°35'3 5.7
2017-Sep-17 16:30N 48°11' W 004°34'2 4.7
2017-Sep-17 16:00N 48°10' W 004°31'2 4.7
2017-Sep-17 15:30N 48°09' W 004°28'2 4.9
2017-Sep-17 15:00N 48°08' W 004°25'3 5.1
2017-Sep-17 14:30N 48°07' W 004°21'2 3.0
2017-Sep-17 13:59N 48°06' W 004°19'0 0.8
2017-Sep-17 13:30N 48°07' W 004°20'1 0.0
2017-Sep-16 14:04N 48°06' W 004°20'0 5.2
2017-Sep-16 14:00N 48°06' W 004°20'1 2.0
2017-Sep-16 13:30N 48°07' W 004°20'1 2.0
2017-Sep-16 12:59N 48°06' W 004°19'2 3.1
2017-Sep-16 12:30N 48°07' W 004°21'1 2.2
2017-Sep-16 11:58N 48°06' W 004°20'0 0.0
2017-Sep-16 10:58N 48°06' W 004°20'0 0.0
2017-Sep-16 09:58N 48°06' W 004°20'0 0.0
2017-Sep-16 08:58N 48°06' W 004°20'0 0.0
2017-Sep-16 07:43N 48°06' W 004°20'0 0.0
2017-Sep-16 06:58N 48°06' W 004°20'0 0.0
2017-Sep-16 05:43N 48°06' W 004°20'0 0.0
2017-Sep-16 03:58N 48°06' W 004°20'0 0.0
2017-Sep-16 02:43N 48°06' W 004°20'0 0.0
2017-Sep-16 01:43N 48°06' W 004°20'0 0.0
2017-Sep-16 00:58N 48°06' W 004°20'0 0.0
2017-Sep-15 23:01N 48°06' W 004°20'0 0.0
2017-Sep-15 22:58N 48°06' W 004°20'0 0.0
2017-Sep-15 21:58N 48°06' W 004°20'0 0.0
2017-Sep-15 20:58N 48°06' W 004°20'0 0.0
2017-Sep-15 19:58N 48°06' W 004°20'0 0.0
2017-Sep-15 18:58N 48°06' W 004°20'0 0.0
2017-Sep-15 17:58N 48°06' W 004°20'0 0.0
2017-Sep-15 16:43N 48°06' W 004°20'0 0.0
2017-Sep-15 15:43N 48°06' W 004°20'0 0.0
2017-Sep-15 13:58N 48°06' W 004°20'2 4.8
2017-Sep-15 13:30N 48°07' W 004°23'4 8.6
2017-Sep-15 13:00N 48°06' W 004°30'6 9.9
2017-Sep-15 12:27N 48°05' W 004°38'3 7.2
2017-Sep-15 11:58N 48°04' W 004°43'62 5.2
2017-Sep-15 00:10N 47°26' W 003°31'2 6.0
2017-Sep-14 23:54N 47°26' W 003°28'2 5.7
2017-Sep-14 23:29N 47°25' W 003°25'4 6.4
2017-Sep-14 22:56N 47°24' W 003°20'2 5.6
2017-Sep-14 22:30N 47°24' W 003°16'  

Dump ship's entire track history